createdAt,value
2022-09-24T00:00:34.044Z,61.61
2022-09-24T00:05:35.751Z,60.83
2022-09-24T00:10:36.228Z,61.20
2022-09-24T00:15:37.200Z,61.15
2022-09-24T00:20:34.697Z,60.03
2022-09-24T00:25:49.914Z,60.33
2022-09-24T00:30:49.797Z,60.27
2022-09-24T00:35:46.721Z,60.26
2022-09-24T00:40:43.579Z,60.13
2022-09-24T00:45:42.080Z,60.29
2022-09-24T00:50:45.319Z,61.51
2022-09-24T00:55:44.996Z,61.34
2022-09-24T01:00:49.754Z,62.57
2022-09-24T01:05:48.331Z,62.79
2022-09-24T01:10:52.701Z,63.31
2022-09-24T01:15:51.931Z,63.30
2022-09-24T01:20:59.920Z,63.40
2022-09-24T01:26:03.345Z,63.47
2022-09-24T01:31:04.953Z,64.06
2022-09-24T01:36:06.345Z,63.57
2022-09-24T01:41:10.406Z,64.40
2022-09-24T01:46:10.187Z,64.30
2022-09-24T01:51:14.610Z,64.86
2022-09-24T01:56:15.974Z,63.89
2022-09-24T02:01:17.404Z,65.23
2022-09-24T02:06:16.194Z,65.62
2022-09-24T02:11:15.490Z,65.76
2022-09-24T02:16:15.714Z,66.08
2022-09-24T02:21:17.062Z,66.97
2022-09-24T02:26:16.925Z,66.68
2022-09-24T02:31:19.084Z,67.38
2022-09-24T02:36:17.609Z,66.05
2022-09-24T02:41:15.348Z,67.09
2022-09-24T02:46:12.178Z,67.50
2022-09-24T02:51:11.367Z,67.47
2022-09-24T02:56:08.963Z,67.74
2022-09-24T03:01:07.534Z,68.51
2022-09-24T03:06:04.484Z,68.12
2022-09-24T03:11:01.191Z,68.63
2022-09-24T03:16:01.516Z,69.66
2022-09-24T03:21:01.837Z,69.38
2022-09-24T03:26:00.621Z,70.08
2022-09-24T03:31:01.426Z,69.96
2022-09-24T03:35:59.074Z,70.16
2022-09-24T03:40:58.313Z,70.60
2022-09-24T03:45:55.315Z,70.58
2022-09-24T03:50:55.106Z,70.73
2022-09-24T03:55:56.294Z,70.53
2022-09-24T04:00:55.235Z,71.17
2022-09-24T04:05:55.871Z,70.48
2022-09-24T04:10:52.843Z,71.00
2022-09-24T04:15:51.106Z,70.80
2022-09-24T04:20:50.929Z,71.22
2022-09-24T04:25:50.607Z,70.74
2022-09-24T04:30:50.026Z,70.60
2022-09-24T04:35:47.067Z,71.94
2022-09-24T04:40:46.700Z,70.60
2022-09-24T04:45:44.439Z,71.12
2022-09-24T04:50:46.293Z,71.32
2022-09-24T04:55:43.982Z,70.59
2022-09-24T05:00:42.676Z,69.88
2022-09-24T05:05:41.124Z,70.90
2022-09-24T05:10:48.229Z,70.63
2022-09-24T05:15:47.875Z,71.70
2022-09-24T05:20:46.197Z,71.70
2022-09-24T05:25:57.378Z,70.86
2022-09-24T05:30:56.787Z,70.88
2022-09-24T05:35:54.858Z,70.57
2022-09-24T05:40:51.717Z,71.11
2022-09-24T05:45:52.144Z,70.29
2022-09-24T05:50:54.652Z,69.67
2022-09-24T05:55:53.611Z,69.98
2022-09-24T06:00:53.186Z,69.05
2022-09-24T06:05:51.568Z,69.27
2022-09-24T06:10:48.875Z,68.89
2022-09-24T06:15:47.707Z,70.58
2022-09-24T06:20:47.082Z,69.17
2022-09-24T06:25:48.937Z,69.79
2022-09-24T06:30:47.209Z,67.99
2022-09-24T06:35:47.482Z,68.64
2022-09-24T06:40:47.893Z,68.97
2022-09-24T06:45:46.572Z,69.25
2022-09-24T06:50:44.886Z,69.48
2022-09-24T06:55:42.102Z,68.50
2022-09-24T07:00:54.439Z,68.52
2022-09-24T07:05:51.988Z,68.63
2022-09-24T07:10:52.094Z,69.33
2022-09-24T07:15:51.165Z,69.01
2022-09-24T07:20:54.990Z,67.74
2022-09-24T07:25:55.383Z,67.20
2022-09-24T07:31:00.576Z,67.70
2022-09-24T07:35:58.401Z,67.24
2022-09-24T07:40:58.811Z,66.37
2022-09-24T07:46:00.728Z,65.83
2022-09-24T07:50:58.195Z,65.56
2022-09-24T07:56:01.024Z,64.73
2022-09-24T08:01:05.063Z,63.39
2022-09-24T08:06:03.832Z,64.22
2022-09-24T08:11:03.276Z,63.43
2022-09-24T08:16:01.134Z,62.98
2022-09-24T08:21:00.882Z,62.29
2022-09-24T08:25:58.426Z,60.09
2022-09-24T08:30:59.995Z,59.74
2022-09-24T08:35:59.177Z,59.25
2022-09-24T08:41:04.381Z,56.66
2022-09-24T08:46:23.574Z,57.98
2022-09-24T08:51:24.098Z,57.65
2022-09-24T08:56:26.652Z,56.26
2022-09-24T09:01:31.586Z,56.20
2022-09-24T09:06:46.310Z,57.19
2022-09-24T09:11:50.350Z,53.76
2022-09-24T09:16:53.002Z,54.02
2022-09-24T09:21:53.380Z,54.64
2022-09-24T09:26:51.339Z,52.22
2022-09-24T09:31:56.367Z,51.74
2022-09-24T09:37:06.135Z,50.96
2022-09-24T09:42:11.286Z,49.30
2022-09-24T09:47:16.586Z,46.38
2022-09-24T09:52:15.718Z,46.73
2022-09-24T09:57:16.579Z,46.62
2022-09-24T10:02:23.112Z,46.46
2022-09-24T10:07:20.706Z,44.55
2022-09-24T10:12:28.132Z,44.45
2022-09-24T10:17:28.041Z,45.16
2022-09-24T10:22:39.233Z,44.06
2022-09-24T10:27:38.102Z,41.90
2022-09-24T10:32:48.299Z,41.62
2022-09-24T10:38:29.591Z,40.79
2022-09-24T10:43:31.668Z,39.70
2022-09-24T10:48:32.529Z,37.45
2022-09-24T10:53:38.358Z,36.38
2022-09-24T10:58:48.201Z,36.49
2022-09-24T11:04:05.446Z,36.14
2022-09-24T11:09:13.144Z,35.76
2022-09-24T11:14:20.023Z,36.53
2022-09-24T11:19:30.099Z,36.97
2022-09-24T11:24:34.277Z,36.46
2022-09-24T11:29:45.263Z,37.01
2022-09-24T11:35:51.839Z,35.35
2022-09-24T11:47:21.384Z,34.78
2022-09-24T11:58:26.327Z,33.99
2022-09-24T12:03:32.374Z,33.40
2022-09-24T12:08:32.845Z,33.46
2022-09-24T12:13:34.138Z,32.45
2022-09-24T12:18:33.925Z,33.22
2022-09-24T12:23:38.630Z,33.24
2022-09-24T12:29:05.648Z,31.54
2022-09-24T12:34:14.625Z,34.52
2022-09-24T12:39:17.943Z,34.58
2022-09-24T12:44:21.975Z,34.95
2022-09-24T12:49:30.528Z,34.39
2022-09-24T12:54:31.789Z,33.31
2022-09-24T12:59:29.667Z,33.74
2022-09-24T13:04:28.258Z,33.96
2022-09-24T13:09:37.927Z,33.58
2022-09-24T13:14:35.070Z,33.29
2022-09-24T13:19:35.271Z,33.50
2022-09-24T13:24:45.288Z,32.48
2022-09-24T13:29:46.009Z,32.33
2022-09-24T13:34:44.758Z,33.51
2022-09-24T13:39:46.139Z,32.15
2022-09-24T13:44:46.432Z,32.17
2022-09-24T13:49:46.911Z,32.34
2022-09-24T13:54:51.553Z,32.89
2022-09-24T13:59:48.306Z,32.08
2022-09-24T14:04:54.301Z,33.00
2022-09-24T14:10:01.510Z,33.86
2022-09-24T14:14:59.341Z,33.79
2022-09-24T14:19:57.006Z,33.29
2022-09-24T14:24:56.272Z,34.67
2022-09-24T14:29:55.470Z,33.75
2022-09-24T14:34:53.301Z,33.86
2022-09-24T14:39:56.488Z,32.53
2022-09-24T14:44:56.633Z,33.60
2022-09-24T14:49:56.961Z,33.76
2022-09-24T14:55:15.321Z,34.32
2022-09-24T15:00:19.606Z,31.97
2022-09-24T15:05:57.462Z,32.62
2022-09-24T15:10:58.878Z,31.88
2022-09-24T15:16:02.953Z,32.92
2022-09-24T15:21:00.031Z,32.82
2022-09-24T15:25:58.790Z,33.61
2022-09-24T15:37:23.139Z,34.76
2022-09-24T15:42:26.645Z,35.27
2022-09-24T15:47:23.543Z,35.87
2022-09-24T15:52:25.415Z,36.39
2022-09-24T15:57:25.396Z,37.03
2022-09-24T16:02:38.610Z,36.93
2022-09-24T16:07:36.039Z,36.50
2022-09-24T16:12:32.658Z,36.66
2022-09-24T16:17:30.056Z,36.81
2022-09-24T16:22:28.026Z,37.12
2022-09-24T16:27:24.777Z,36.55
2022-09-24T16:32:21.510Z,37.37
2022-09-24T16:37:20.447Z,37.33
2022-09-24T16:42:17.197Z,37.03
2022-09-24T16:47:15.702Z,37.66
2022-09-24T16:52:14.217Z,37.49
2022-09-24T16:57:18.749Z,37.03
2022-09-24T17:02:19.878Z,37.70
2022-09-24T17:07:17.305Z,38.03
2022-09-24T17:12:17.618Z,37.35
2022-09-24T17:17:14.361Z,37.34
2022-09-24T17:22:12.175Z,37.61
2022-09-24T17:27:09.092Z,37.36
2022-09-24T17:32:12.519Z,37.57
2022-09-24T17:37:11.750Z,38.05
2022-09-24T17:42:08.597Z,38.23
2022-09-24T17:47:07.216Z,38.10
2022-09-24T17:52:04.486Z,38.39
2022-09-24T17:57:01.541Z,38.28
2022-09-24T18:01:59.686Z,38.95
2022-09-24T18:07:36.922Z,38.86
2022-09-24T18:12:34.376Z,38.92
2022-09-24T18:17:31.085Z,38.34
2022-09-24T18:22:29.042Z,38.94
2022-09-24T18:27:25.821Z,39.75
2022-09-24T18:32:26.066Z,39.74
2022-09-24T18:37:26.197Z,39.28
2022-09-24T18:42:29.693Z,39.06
2022-09-24T18:47:27.391Z,39.70
2022-09-24T18:52:26.021Z,39.31
2022-09-24T18:57:22.954Z,39.53
2022-09-24T19:02:23.364Z,39.52
2022-09-24T19:07:21.683Z,39.92
2022-09-24T19:12:21.997Z,39.36
2022-09-24T19:17:18.853Z,39.48
2022-09-24T19:22:15.917Z,39.31
2022-09-24T19:27:15.894Z,39.68
2022-09-24T19:32:12.742Z,39.34
2022-09-24T19:37:12.135Z,40.02
2022-09-24T19:42:09.089Z,39.72
2022-09-24T19:47:10.555Z,39.20
2022-09-24T19:52:13.147Z,39.85
2022-09-24T19:57:11.566Z,39.54
2022-09-24T20:02:14.174Z,39.42
2022-09-24T20:07:17.388Z,40.32
2022-09-24T20:12:19.569Z,39.65
2022-09-24T20:17:17.002Z,40.29
2022-09-24T20:22:17.369Z,41.52
2022-09-24T20:27:54.887Z,41.86
2022-09-24T20:32:57.858Z,41.84
2022-09-24T20:37:54.743Z,42.03
2022-09-24T20:42:51.579Z,42.29
2022-09-24T20:47:49.939Z,42.68
2022-09-24T20:52:47.652Z,42.83
2022-09-24T20:57:45.765Z,42.86
2022-09-24T21:02:48.511Z,42.74
2022-09-24T21:08:15.997Z,42.44
2022-09-24T21:13:19.953Z,42.12
2022-09-24T21:18:40.062Z,42.45
2022-09-24T21:23:41.833Z,41.77
2022-09-24T21:29:12.994Z,42.30
2022-09-24T21:34:15.740Z,42.71
2022-09-24T21:39:15.529Z,42.61
2022-09-24T21:44:20.892Z,42.99
2022-09-24T21:49:36.343Z,43.55
2022-09-24T21:54:57.036Z,44.18
2022-09-24T22:00:14.851Z,44.41
2022-09-24T22:05:27.130Z,44.36
2022-09-24T22:10:34.916Z,44.56
2022-09-24T22:15:51.003Z,45.20
2022-09-24T22:20:53.084Z,45.39
2022-09-24T22:25:59.158Z,45.56
2022-09-24T22:31:22.796Z,46.07
2022-09-24T22:36:40.700Z,46.70
2022-09-24T22:47:03.906Z,46.52
2022-09-24T22:52:07.453Z,46.96
2022-09-24T22:57:04.406Z,47.31
2022-09-24T23:02:13.442Z,47.38
2022-09-24T23:07:16.596Z,48.35
2022-09-24T23:12:27.328Z,48.52
2022-09-24T23:17:40.763Z,48.12
2022-09-24T23:22:41.341Z,47.64
2022-09-24T23:27:38.268Z,47.33
2022-09-24T23:32:46.428Z,48.04
2022-09-24T23:37:46.079Z,48.66
2022-09-24T23:42:43.521Z,49.09
2022-09-24T23:47:40.604Z,49.16
2022-09-24T23:52:40.494Z,48.90
2022-09-24T23:57:55.686Z,49.81
